createdAt,value
2019-03-01T00:00:15.910Z,5.12
2019-03-01T00:01:15.865Z,5.12
2019-03-01T00:02:15.863Z,5.17
2019-03-01T00:03:15.847Z,5.15
2019-03-01T00:04:15.832Z,5.20
2019-03-01T00:05:15.827Z,5.24
2019-03-01T00:06:15.815Z,5.13
2019-03-01T00:07:15.797Z,5.06
2019-03-01T00:08:15.787Z,5.13
2019-03-01T00:09:15.783Z,5.04
2019-03-01T00:10:15.769Z,5.15
2019-03-01T00:11:15.762Z,5.18
2019-03-01T00:12:15.740Z,5.22
2019-03-01T00:13:15.763Z,5.06
2019-03-01T00:14:15.723Z,5.04
2019-03-01T00:15:15.706Z,5.09
2019-03-01T00:16:15.691Z,5.10
2019-03-01T00:17:15.695Z,4.96
2019-03-01T00:18:15.695Z,4.94
2019-03-01T00:19:15.675Z,4.99
2019-03-01T00:20:15.662Z,4.99
2019-03-01T00:21:15.642Z,4.96
2019-03-01T00:22:15.637Z,4.94
2019-03-01T00:23:15.624Z,5.00
2019-03-01T00:24:15.615Z,5.06
2019-03-01T00:25:15.629Z,4.89
2019-03-01T00:26:15.619Z,5.03
2019-03-01T00:27:15.589Z,4.97
2019-03-01T00:28:15.572Z,4.97
2019-03-01T00:29:15.561Z,4.97
2019-03-01T00:30:15.551Z,4.92
2019-03-01T00:31:15.537Z,4.85
2019-03-01T00:32:15.529Z,4.59
2019-03-01T00:33:15.511Z,4.60
2019-03-01T00:34:15.511Z,4.59
2019-03-01T00:35:15.503Z,4.66
2019-03-01T00:36:15.514Z,4.65
2019-03-01T00:37:15.471Z,4.73
2019-03-01T00:38:15.455Z,4.72
2019-03-01T00:39:15.455Z,4.78
2019-03-01T00:40:15.444Z,4.70
2019-03-01T00:41:15.439Z,4.69
2019-03-01T00:42:15.420Z,4.59
2019-03-01T00:43:15.407Z,4.62
2019-03-01T00:44:15.397Z,4.58
2019-03-01T00:45:15.391Z,4.58
2019-03-01T00:46:15.391Z,4.63
2019-03-01T00:47:15.379Z,4.60
2019-03-01T00:48:15.353Z,4.67
2019-03-01T00:49:15.353Z,4.70
2019-03-01T00:50:15.341Z,4.75
2019-03-01T00:51:15.322Z,4.72
2019-03-01T00:52:15.326Z,4.78
2019-03-01T00:53:15.331Z,4.73
2019-03-01T00:54:15.283Z,4.66
2019-03-01T00:55:15.275Z,4.50
2019-03-01T00:56:15.277Z,4.50
2019-03-01T00:57:15.255Z,4.42
2019-03-01T00:58:15.260Z,4.50
2019-03-01T00:59:15.234Z,4.52
2019-03-01T01:00:15.222Z,4.52
2019-03-01T01:01:15.213Z,4.51
2019-03-01T01:02:15.213Z,4.54
2019-03-01T01:03:15.195Z,4.59
2019-03-01T01:04:15.201Z,4.60
2019-03-01T01:05:15.175Z,4.67
2019-03-01T01:06:15.161Z,4.70
2019-03-01T01:07:15.152Z,4.67
2019-03-01T01:08:15.145Z,4.66
2019-03-01T01:09:15.135Z,4.67
2019-03-01T01:10:15.124Z,4.66
2019-03-01T01:11:15.103Z,4.69
2019-03-01T01:12:15.119Z,4.69
2019-03-01T01:13:15.077Z,4.67
2019-03-01T01:14:15.070Z,4.66
2019-03-01T01:15:15.073Z,4.75
2019-03-01T01:16:15.079Z,4.70
2019-03-01T01:17:15.038Z,4.75
2019-03-01T01:18:15.029Z,4.72
2019-03-01T01:19:15.024Z,4.82
2019-03-01T01:20:15.008Z,4.85
2019-03-01T01:21:15.004Z,4.84
2019-03-01T01:22:15.000Z,4.84
2019-03-01T01:23:14.975Z,4.88
2019-03-01T01:24:14.963Z,4.84
2019-03-01T01:25:14.962Z,4.89
2019-03-01T01:26:14.952Z,4.88
2019-03-01T01:27:14.949Z,4.86
2019-03-01T01:28:14.924Z,4.92
2019-03-01T01:29:14.921Z,4.94
2019-03-01T01:30:14.908Z,4.97
2019-03-01T01:31:14.887Z,4.92
2019-03-01T01:32:14.886Z,4.96
2019-03-01T01:33:14.880Z,4.97
2019-03-01T01:34:14.854Z,4.89
2019-03-01T01:35:14.865Z,4.94
2019-03-01T01:36:14.844Z,4.91
2019-03-01T01:37:14.823Z,4.99
2019-03-01T01:38:14.813Z,4.94
2019-03-01T01:39:14.805Z,4.94
2019-03-01T01:40:14.786Z,4.92
2019-03-01T01:41:14.781Z,5.03
2019-03-01T01:42:14.774Z,5.03
2019-03-01T01:43:14.769Z,5.07
2019-03-01T01:44:14.761Z,5.07
2019-03-01T01:45:14.755Z,5.15
2019-03-01T01:46:14.733Z,5.12
2019-03-01T01:47:14.715Z,5.18
2019-03-01T01:48:14.715Z,5.13
2019-03-01T01:49:14.706Z,5.21
2019-03-01T01:50:14.693Z,5.03
2019-03-01T01:51:14.674Z,5.22
2019-03-01T01:52:14.662Z,5.15
2019-03-01T01:53:14.653Z,5.09
2019-03-01T01:54:14.645Z,5.10
2019-03-01T01:55:14.647Z,5.24
2019-03-01T01:56:14.627Z,5.22
2019-03-01T01:57:14.615Z,5.15
2019-03-01T01:58:14.661Z,5.25
2019-03-01T01:59:14.597Z,5.21
2019-03-01T02:00:14.577Z,5.22
2019-03-01T02:01:14.588Z,5.25
2019-03-01T02:02:14.561Z,5.25
2019-03-01T02:03:14.571Z,5.24
2019-03-01T02:04:14.527Z,5.21
2019-03-01T02:05:14.523Z,5.24
2019-03-01T02:06:14.513Z,5.30
2019-03-01T02:07:14.510Z,5.33
2019-03-01T02:08:14.495Z,5.33
2019-03-01T02:09:14.479Z,5.33
2019-03-01T02:10:14.469Z,5.33
2019-03-01T02:11:14.487Z,5.39
2019-03-01T02:12:14.453Z,5.40
2019-03-01T02:13:14.439Z,5.39
2019-03-01T02:14:14.429Z,5.36
2019-03-01T02:15:14.416Z,5.38
2019-03-01T02:16:14.402Z,5.36
2019-03-01T02:17:14.397Z,5.38
2019-03-01T02:18:14.393Z,5.33
2019-03-01T02:19:14.371Z,5.30
2019-03-01T02:20:14.357Z,5.31
2019-03-01T02:21:14.351Z,5.42
2019-03-01T02:22:14.371Z,5.33
2019-03-01T02:23:14.327Z,5.28
2019-03-01T02:24:14.327Z,5.30
2019-03-01T02:25:14.302Z,5.35
2019-03-01T02:26:14.297Z,5.38
2019-03-01T02:27:14.293Z,5.35
2019-03-01T02:28:14.271Z,5.39
2019-03-01T02:29:14.267Z,5.43
2019-03-01T02:30:14.249Z,5.36
2019-03-01T02:31:14.241Z,5.43
2019-03-01T02:32:14.226Z,5.51
2019-03-01T02:33:14.218Z,5.42
2019-03-01T02:34:14.234Z,5.49
2019-03-01T02:35:14.209Z,5.63
2019-03-01T02:36:14.187Z,5.54
2019-03-01T02:37:14.175Z,5.60
2019-03-01T02:38:14.396Z,5.60
2019-03-01T02:39:14.174Z,5.60
2019-03-01T02:40:14.172Z,5.48
2019-03-01T02:41:14.136Z,5.54
2019-03-01T02:42:14.123Z,5.57
2019-03-01T02:43:14.116Z,5.56
2019-03-01T02:44:14.114Z,5.63
2019-03-01T02:45:14.094Z,5.67
2019-03-01T02:46:14.087Z,5.68
2019-03-01T02:47:14.079Z,5.67
2019-03-01T02:48:14.059Z,5.67
2019-03-01T02:49:14.057Z,5.64
2019-03-01T02:50:14.041Z,5.58
2019-03-01T02:51:14.031Z,5.68
2019-03-01T02:52:14.015Z,5.68
2019-03-01T02:53:14.002Z,5.45
2019-03-01T02:54:14.018Z,5.53
2019-03-01T02:55:13.985Z,5.54
2019-03-01T02:56:13.971Z,5.57
2019-03-01T02:57:13.959Z,5.57
2019-03-01T02:58:13.950Z,5.46
2019-03-01T02:59:13.942Z,5.43
2019-03-01T03:00:13.936Z,5.64
2019-03-01T03:01:13.926Z,5.68
2019-03-01T03:02:13.906Z,5.64
2019-03-01T03:03:13.900Z,5.60
2019-03-01T03:04:13.890Z,5.71
2019-03-01T03:05:13.874Z,5.68
2019-03-01T03:06:13.865Z,5.71
2019-03-01T03:07:13.866Z,5.67
2019-03-01T03:08:13.848Z,5.63
2019-03-01T03:09:13.843Z,5.65
2019-03-01T03:10:13.845Z,5.72
2019-03-01T03:11:13.810Z,5.68
2019-03-01T03:12:13.794Z,5.68
2019-03-01T03:13:13.786Z,5.71
2019-03-01T03:14:13.789Z,5.61
2019-03-01T03:15:13.764Z,5.63
2019-03-01T03:16:13.754Z,5.61
2019-03-01T03:17:13.751Z,5.68
2019-03-01T03:18:13.743Z,5.60
2019-03-01T03:19:13.730Z,5.61
2019-03-01T03:20:13.717Z,5.65
2019-03-01T03:21:13.713Z,5.64
2019-03-01T03:22:13.702Z,5.64
2019-03-01T03:23:13.717Z,5.64
2019-03-01T03:24:13.667Z,5.63
2019-03-01T03:25:13.672Z,5.67
2019-03-01T03:26:13.658Z,5.65
2019-03-01T03:27:13.640Z,5.67
2019-03-01T03:28:13.628Z,5.57
2019-03-01T03:29:13.619Z,5.63
2019-03-01T03:30:13.615Z,5.57
2019-03-01T03:31:13.620Z,5.65
2019-03-01T03:32:13.587Z,5.63
2019-03-01T03:33:13.602Z,5.65
2019-03-01T03:34:13.581Z,5.64
2019-03-01T03:35:13.599Z,5.64
2019-03-01T03:36:13.543Z,5.64
2019-03-01T03:37:13.546Z,5.68
2019-03-01T03:38:13.517Z,5.64
2019-03-01T03:39:13.508Z,5.64
2019-03-01T03:40:13.501Z,5.61
2019-03-01T03:41:13.495Z,5.64
2019-03-01T03:42:13.485Z,5.61
2019-03-01T03:43:13.480Z,5.56
2019-03-01T03:44:13.451Z,5.58
2019-03-01T03:45:13.444Z,5.63
2019-03-01T03:46:13.444Z,5.67
2019-03-01T03:47:13.427Z,5.54
2019-03-01T03:48:13.415Z,5.60
2019-03-01T03:49:13.405Z,5.56
2019-03-01T03:50:13.393Z,5.60
2019-03-01T03:51:13.389Z,5.72
2019-03-01T03:52:13.396Z,5.58
2019-03-01T03:53:13.369Z,5.61
2019-03-01T03:54:13.353Z,5.61
2019-03-01T03:55:13.336Z,5.58
2019-03-01T03:56:13.329Z,5.46
2019-03-01T03:57:13.314Z,5.48
2019-03-01T03:58:13.307Z,5.53
2019-03-01T03:59:13.309Z,5.58
2019-03-01T04:00:13.290Z,5.48
2019-03-01T04:01:13.276Z,5.53
2019-03-01T04:02:13.257Z,5.51
2019-03-01T04:03:13.252Z,5.53
2019-03-01T04:04:13.239Z,5.45
2019-03-01T04:05:13.247Z,5.49
2019-03-01T04:06:13.214Z,5.46
2019-03-01T04:07:13.208Z,5.42
2019-03-01T04:08:13.202Z,5.51
2019-03-01T04:09:13.212Z,5.42
2019-03-01T04:10:13.181Z,5.40
2019-03-01T04:11:13.179Z,5.42
2019-03-01T04:12:13.147Z,5.51
2019-03-01T04:13:13.161Z,5.49
2019-03-01T04:14:13.128Z,5.53
2019-03-01T04:15:13.118Z,5.57
2019-03-01T04:16:13.124Z,5.53
2019-03-01T04:17:13.112Z,5.45
2019-03-01T04:18:13.089Z,5.57
2019-03-01T04:19:13.086Z,5.58
2019-03-01T04:20:13.062Z,5.67
2019-03-01T04:21:13.063Z,5.65
2019-03-01T04:22:13.073Z,5.63
2019-03-01T04:23:13.029Z,5.74
2019-03-01T04:24:13.022Z,5.74
2019-03-01T04:25:13.013Z,5.79
2019-03-01T04:26:13.003Z,5.71
2019-03-01T04:27:12.990Z,5.79
2019-03-01T04:28:12.986Z,5.75
2019-03-01T04:29:12.981Z,5.75
2019-03-01T04:30:12.954Z,5.68
2019-03-01T04:31:12.943Z,5.75
2019-03-01T04:32:12.933Z,5.75
2019-03-01T04:33:12.917Z,5.76
2019-03-01T04:34:12.940Z,5.82
2019-03-01T04:35:12.905Z,5.76
2019-03-01T04:36:12.900Z,5.81
2019-03-01T04:37:12.879Z,5.86
2019-03-01T04:38:12.871Z,5.81
2019-03-01T04:39:12.867Z,5.74
2019-03-01T04:40:12.841Z,5.63
2019-03-01T04:41:12.836Z,5.60
2019-03-01T04:42:12.827Z,5.57
2019-03-01T04:43:12.819Z,5.53
2019-03-01T04:44:12.807Z,5.53
2019-03-01T04:45:12.815Z,5.64
2019-03-01T04:46:12.782Z,5.64
2019-03-01T04:47:12.773Z,5.64
2019-03-01T04:48:12.762Z,5.63
2019-03-01T04:49:12.763Z,5.60
2019-03-01T04:50:12.745Z,5.65
2019-03-01T04:51:12.728Z,5.60
2019-03-01T04:52:12.713Z,5.64
2019-03-01T04:53:12.710Z,5.65
2019-03-01T04:54:12.692Z,5.63
2019-03-01T04:55:12.694Z,5.76
2019-03-01T04:56:12.673Z,5.72
2019-03-01T04:57:12.671Z,5.64
2019-03-01T04:58:12.647Z,5.64
2019-03-01T04:59:12.645Z,5.63
2019-03-01T05:00:12.629Z,5.64
2019-03-01T05:01:12.626Z,5.64
2019-03-01T05:02:12.621Z,5.63
2019-03-01T05:03:12.613Z,5.72
2019-03-01T05:04:12.589Z,5.74
2019-03-01T05:05:12.575Z,5.68
2019-03-01T05:06:12.606Z,5.57
2019-03-01T05:07:12.551Z,5.74
2019-03-01T05:08:12.567Z,5.63
2019-03-01T05:09:12.538Z,5.64
2019-03-01T05:10:12.521Z,5.61
2019-03-01T05:11:12.525Z,5.76
2019-03-01T05:12:12.499Z,5.74
2019-03-01T05:13:12.494Z,5.72
2019-03-01T05:14:12.487Z,5.74
2019-03-01T05:15:14.509Z,5.74
2019-03-01T05:16:12.455Z,5.71
2019-03-01T05:17:12.441Z,5.75
2019-03-01T05:18:12.439Z,5.81
2019-03-01T05:19:12.429Z,5.79
2019-03-01T05:20:12.416Z,5.81
2019-03-01T05:21:12.413Z,5.89
2019-03-01T05:22:12.392Z,5.82
2019-03-01T05:23:12.406Z,5.83
2019-03-01T05:24:12.367Z,5.79
2019-03-01T05:25:12.371Z,5.86
2019-03-01T05:26:12.345Z,5.81
2019-03-01T05:27:12.339Z,5.79
2019-03-01T05:28:12.339Z,5.85
2019-03-01T05:29:12.315Z,5.82
2019-03-01T05:30:12.309Z,5.78
2019-03-01T05:31:12.297Z,5.85
2019-03-01T05:32:12.283Z,5.79
2019-03-01T05:33:12.277Z,5.86
2019-03-01T05:34:12.292Z,5.81
2019-03-01T05:35:12.257Z,5.82
2019-03-01T05:36:12.271Z,5.81
2019-03-01T05:37:12.235Z,5.91
2019-03-01T05:38:21.337Z,5.85
2019-03-01T05:39:13.212Z,5.89
2019-03-01T05:40:12.206Z,5.91
2019-03-01T05:41:12.199Z,5.89
2019-03-01T05:42:12.177Z,5.89
2019-03-01T05:43:12.172Z,5.94
2019-03-01T05:44:12.175Z,5.96
2019-03-01T05:45:12.155Z,6.00
2019-03-01T05:46:12.136Z,6.01
2019-03-01T05:47:12.142Z,5.91
2019-03-01T05:48:12.112Z,6.01
2019-03-01T05:49:12.114Z,6.00
2019-03-01T05:50:12.095Z,6.03
2019-03-01T05:51:12.079Z,6.00
2019-03-01T05:52:12.085Z,5.97
2019-03-01T05:53:12.069Z,5.96
2019-03-01T05:54:12.055Z,5.97
2019-03-01T05:55:12.047Z,6.09
2019-03-01T05:56:12.027Z,6.06
2019-03-01T05:57:12.045Z,6.12
2019-03-01T05:58:16.529Z,6.08
2019-03-01T05:59:11.991Z,6.04
2019-03-01T06:00:11.990Z,5.96
2019-03-01T06:01:11.982Z,6.03
2019-03-01T06:02:12.009Z,6.04
2019-03-01T06:03:11.953Z,5.94
2019-03-01T06:04:11.942Z,5.97
2019-03-01T06:05:11.931Z,5.96
2019-03-01T06:06:11.924Z,5.96
2019-03-01T06:07:11.932Z,6.03
2019-03-01T06:08:11.902Z,6.00
2019-03-01T06:09:11.891Z,6.01
2019-03-01T06:10:11.885Z,5.99
2019-03-01T06:11:11.863Z,5.94
2019-03-01T06:12:11.863Z,5.94
2019-03-01T06:13:11.849Z,5.96
2019-03-01T06:14:11.830Z,6.00
2019-03-01T06:15:11.831Z,5.91
2019-03-01T06:16:11.809Z,5.93
2019-03-01T06:17:11.801Z,5.93
2019-03-01T06:18:11.791Z,5.96
2019-03-01T06:19:11.785Z,5.93
2019-03-01T06:20:11.779Z,5.89
2019-03-01T06:21:11.759Z,5.94
2019-03-01T06:22:11.756Z,5.94
2019-03-01T06:23:11.756Z,5.93
2019-03-01T06:24:11.738Z,5.89
2019-03-01T06:25:11.716Z,5.79
2019-03-01T06:26:11.711Z,5.96
2019-03-01T06:27:11.705Z,5.91
2019-03-01T06:28:11.680Z,5.93
2019-03-01T06:29:11.777Z,5.99
2019-03-01T06:30:11.663Z,6.01
2019-03-01T06:31:11.653Z,5.97
2019-03-01T06:32:11.643Z,6.09
2019-03-01T06:33:11.625Z,6.03
2019-03-01T06:34:11.611Z,6.09
2019-03-01T06:35:11.612Z,6.06
2019-03-01T06:36:11.649Z,6.14
2019-03-01T06:37:11.594Z,6.18
2019-03-01T06:38:11.598Z,6.15
2019-03-01T06:39:11.629Z,6.19
2019-03-01T06:40:11.715Z,6.12
2019-03-01T06:41:11.611Z,6.11
2019-03-01T06:42:11.603Z,6.11
2019-03-01T06:43:11.602Z,6.21
2019-03-01T06:44:11.561Z,6.15
2019-03-01T06:45:11.573Z,6.25
2019-03-01T06:46:11.560Z,6.21
2019-03-01T06:47:11.555Z,6.27
2019-03-01T06:48:11.515Z,6.31
2019-03-01T06:49:11.561Z,6.33
2019-03-01T06:50:13.083Z,6.30
2019-03-01T06:51:42.464Z,6.21
2019-03-01T06:52:42.180Z,6.22
2019-03-01T06:54:12.981Z,6.28
2019-03-01T06:55:12.892Z,6.17
2019-03-01T06:56:43.676Z,6.25
2019-03-01T06:57:43.665Z,6.18
2019-03-01T06:59:14.288Z,6.12
2019-03-01T07:00:14.217Z,6.08
2019-03-01T07:01:45.047Z,6.18
2019-03-01T07:02:44.929Z,6.18
2019-03-01T07:04:15.625Z,6.14
2019-03-01T07:05:15.536Z,6.12
2019-03-01T07:06:46.430Z,6.21
2019-03-01T07:07:46.303Z,6.25
2019-03-01T07:09:17.073Z,6.22
2019-03-01T07:10:16.979Z,6.28
2019-03-01T07:11:47.821Z,6.27
2019-03-01T07:12:47.654Z,6.19
2019-03-01T07:14:19.459Z,6.12
2019-03-01T07:15:19.289Z,6.27
2019-03-01T07:16:50.101Z,6.22
2019-03-01T07:17:49.963Z,6.27
2019-03-01T07:19:20.892Z,6.17
2019-03-01T07:20:20.610Z,6.19
2019-03-01T07:21:52.271Z,6.15
2019-03-01T07:22:52.169Z,6.18
2019-03-01T07:24:22.148Z,6.30
2019-03-01T07:25:22.003Z,6.27
2019-03-01T07:26:52.735Z,6.25
2019-03-01T07:27:52.623Z,6.25
2019-03-01T07:29:23.437Z,6.12
2019-03-01T07:30:23.347Z,6.12
2019-03-01T07:31:55.335Z,6.15
2019-03-01T07:32:53.969Z,6.11
2019-03-01T07:34:24.745Z,6.19
2019-03-01T07:35:24.642Z,6.17
2019-03-01T07:36:55.469Z,6.19
2019-03-01T07:37:55.287Z,6.25
2019-03-01T07:39:26.193Z,6.30
2019-03-01T07:40:26.017Z,6.27
2019-03-01T07:41:57.085Z,6.27
2019-03-01T07:42:56.653Z,6.27
2019-03-01T07:44:28.306Z,6.33
2019-03-01T07:45:27.345Z,6.34
2019-03-01T07:46:58.176Z,6.36
2019-03-01T07:47:58.040Z,6.34
2019-03-01T07:49:29.173Z,6.28
2019-03-01T07:50:28.711Z,6.28
2019-03-01T07:51:30.691Z,6.33
2019-03-01T07:52:30.617Z,6.33
2019-03-01T07:53:28.795Z,6.22
2019-03-01T07:54:28.663Z,6.31
2019-03-01T07:55:29.445Z,6.38
2019-03-01T07:56:30.597Z,6.28
2019-03-01T07:57:28.689Z,6.41
2019-03-01T07:58:28.673Z,6.33
2019-03-01T07:59:33.402Z,6.31
2019-03-01T08:00:32.590Z,6.33
2019-03-01T08:01:29.146Z,6.40
2019-03-01T08:02:28.607Z,6.33
2019-03-01T08:03:28.548Z,6.41
2019-03-01T08:04:29.641Z,6.31
2019-03-01T08:05:28.529Z,6.37
2019-03-01T08:06:28.525Z,6.31
2019-03-01T08:07:31.047Z,6.40
2019-03-01T08:08:28.483Z,6.41
2019-03-01T08:09:28.505Z,6.44
2019-03-01T08:10:28.491Z,6.51
2019-03-01T08:11:31.498Z,6.43
2019-03-01T08:12:30.788Z,6.41
2019-03-01T08:13:28.424Z,6.44
2019-03-01T08:14:31.541Z,6.44
2019-03-01T08:15:31.032Z,6.52
2019-03-01T08:16:28.386Z,6.49
2019-03-01T08:17:31.669Z,6.49
2019-03-01T08:18:28.396Z,6.48
2019-03-01T08:19:28.391Z,6.46
2019-03-01T08:20:30.411Z,6.44
2019-03-01T08:21:31.107Z,6.37
2019-03-01T08:22:28.425Z,6.41
2019-03-01T08:23:31.822Z,6.46
2019-03-01T08:24:29.367Z,6.46
2019-03-01T08:25:30.055Z,6.52
2019-03-01T08:26:30.777Z,6.46
2019-03-01T08:27:29.294Z,6.49
2019-03-01T08:28:28.295Z,6.48
2019-03-01T08:29:34.037Z,6.51
2019-03-01T08:30:28.386Z,6.49
2019-03-01T08:31:28.353Z,6.58
2019-03-01T08:32:30.686Z,6.58
2019-03-01T08:33:28.208Z,6.52
2019-03-01T08:34:28.195Z,6.59
2019-03-01T08:35:31.966Z,6.61
2019-03-01T08:36:28.214Z,6.58
2019-03-01T08:37:28.179Z,6.66
2019-03-01T08:38:28.977Z,6.69
2019-03-01T08:39:28.156Z,6.59
2019-03-01T08:40:28.167Z,6.59
2019-03-01T08:41:28.145Z,6.64
2019-03-01T08:42:28.157Z,6.58
2019-03-01T08:43:28.185Z,6.67
2019-03-01T08:44:28.115Z,6.58
2019-03-01T08:45:29.703Z,6.59
2019-03-01T08:46:30.092Z,6.58
2019-03-01T08:47:28.051Z,6.49
2019-03-01T08:48:30.535Z,6.54
2019-03-01T08:49:29.067Z,6.61
2019-03-01T08:50:28.015Z,6.69
2019-03-01T08:51:28.015Z,6.67
2019-03-01T08:52:27.977Z,6.70
2019-03-01T08:53:27.958Z,6.66
2019-03-01T08:54:27.951Z,6.70
2019-03-01T08:55:27.996Z,6.74
2019-03-01T08:56:27.997Z,6.74
2019-03-01T08:57:29.573Z,6.73
2019-03-01T08:58:29.562Z,6.77
2019-03-01T08:59:27.942Z,6.76
2019-03-01T09:00:30.555Z,6.77
2019-03-01T09:01:27.915Z,6.73
2019-03-01T09:02:27.907Z,6.71
2019-03-01T09:03:29.613Z,6.74
2019-03-01T09:04:27.905Z,6.74
2019-03-01T09:05:27.971Z,6.80
2019-03-01T09:06:27.866Z,6.81
2019-03-01T09:07:30.198Z,6.81
2019-03-01T09:08:27.864Z,6.87
2019-03-01T09:09:27.821Z,6.87
2019-03-01T09:10:29.149Z,6.79
2019-03-01T09:11:27.804Z,6.77
2019-03-01T09:12:27.774Z,6.69
2019-03-01T09:13:27.807Z,6.87
2019-03-01T09:14:27.818Z,6.88
2019-03-01T09:15:27.778Z,6.85
2019-03-01T09:16:29.617Z,6.87
2019-03-01T09:17:27.764Z,6.89
2019-03-01T09:18:27.765Z,6.91
2019-03-01T09:19:27.777Z,6.88
2019-03-01T09:20:27.787Z,6.85
2019-03-01T09:21:28.199Z,6.81
2019-03-01T09:22:29.599Z,6.87
2019-03-01T09:23:27.807Z,6.94
2019-03-01T09:24:29.251Z,6.95
2019-03-01T09:25:27.767Z,6.99
2019-03-01T09:26:27.701Z,7.12
2019-03-01T09:27:30.289Z,7.07
2019-03-01T09:28:27.633Z,7.07
2019-03-01T09:29:27.707Z,7.07
2019-03-01T09:30:31.597Z,7.06
2019-03-01T09:31:27.751Z,7.10
2019-03-01T09:32:30.420Z,6.94
2019-03-01T09:33:28.596Z,6.88
2019-03-01T09:34:28.576Z,6.91
2019-03-01T09:35:29.922Z,6.87
2019-03-01T09:36:27.586Z,6.91
2019-03-01T09:37:29.650Z,6.81
2019-03-01T09:38:27.538Z,6.71
2019-03-01T09:39:27.516Z,6.74
2019-03-01T09:40:28.838Z,6.76
2019-03-01T09:41:27.531Z,6.85
2019-03-01T09:42:27.521Z,6.89
2019-03-01T09:43:27.938Z,6.84
2019-03-01T09:44:27.453Z,6.88
2019-03-01T09:45:35.784Z,6.77
2019-03-01T09:46:28.469Z,6.73
2019-03-01T09:47:27.471Z,6.74
2019-03-01T09:48:27.547Z,6.76
2019-03-01T09:49:31.114Z,6.69
2019-03-01T09:50:31.653Z,6.77
2019-03-01T09:51:30.066Z,6.64
2019-03-01T09:52:27.409Z,6.71
2019-03-01T09:53:30.665Z,6.64
2019-03-01T09:54:29.330Z,6.74
2019-03-01T09:55:27.367Z,6.70
2019-03-01T09:56:27.343Z,6.76
2019-03-01T09:57:27.399Z,6.62
2019-03-01T09:58:27.333Z,6.64
2019-03-01T09:59:27.292Z,6.79
2019-03-01T10:00:27.269Z,6.62
2019-03-01T10:01:27.321Z,6.64
2019-03-01T10:02:27.343Z,6.67
2019-03-01T10:03:29.062Z,6.61
2019-03-01T10:04:27.279Z,6.59
2019-03-01T10:05:27.287Z,6.58
2019-03-01T10:06:27.253Z,6.64
2019-03-01T10:07:27.242Z,6.64
2019-03-01T10:08:27.204Z,6.66
2019-03-01T10:09:27.209Z,6.62
2019-03-01T10:10:27.230Z,6.66
2019-03-01T10:11:29.142Z,6.76
2019-03-01T10:12:27.175Z,6.79
2019-03-01T10:13:27.177Z,6.77
2019-03-01T10:14:27.143Z,6.81
2019-03-01T10:15:27.217Z,6.85
2019-03-01T10:16:29.073Z,6.92
2019-03-01T10:17:27.151Z,6.89
2019-03-01T10:18:29.071Z,6.94
2019-03-01T10:19:27.141Z,6.95
2019-03-01T10:20:27.145Z,6.98
2019-03-01T10:21:27.057Z,6.89
2019-03-01T10:22:27.621Z,6.94
2019-03-01T10:23:27.099Z,6.95
2019-03-01T10:24:27.086Z,6.88
2019-03-01T10:25:27.013Z,6.88
2019-03-01T10:26:27.017Z,6.85
2019-03-01T10:27:27.023Z,6.76
2019-03-01T10:28:27.019Z,6.76
2019-03-01T10:29:27.007Z,6.85
2019-03-01T10:30:27.070Z,6.88
2019-03-01T10:31:26.967Z,6.94
2019-03-01T10:32:27.969Z,6.89
2019-03-01T10:33:27.023Z,6.94
2019-03-01T10:34:26.929Z,6.95
2019-03-01T10:35:26.913Z,6.95
2019-03-01T10:36:26.945Z,6.99
2019-03-01T10:37:26.897Z,7.05
2019-03-01T10:38:26.931Z,6.97
2019-03-01T10:39:26.888Z,7.06
2019-03-01T10:40:26.900Z,7.09
2019-03-01T10:41:26.904Z,7.03
2019-03-01T10:42:29.598Z,7.10
2019-03-01T10:43:26.849Z,7.06
2019-03-01T10:44:26.855Z,7.07
2019-03-01T10:45:26.863Z,6.97
2019-03-01T10:46:26.858Z,6.95
2019-03-01T10:47:26.824Z,6.98
2019-03-01T10:48:29.592Z,7.03
2019-03-01T10:49:26.774Z,7.13
2019-03-01T10:50:26.813Z,7.10
2019-03-01T10:51:26.740Z,7.09
2019-03-01T10:52:26.729Z,6.94
2019-03-01T10:53:28.607Z,7.09
2019-03-01T10:54:26.732Z,6.98
2019-03-01T10:55:28.583Z,6.91
2019-03-01T10:56:28.591Z,6.94
2019-03-01T10:57:26.693Z,6.92
2019-03-01T10:58:26.671Z,6.91
2019-03-01T10:59:26.679Z,6.95
2019-03-01T11:00:26.678Z,6.87
2019-03-01T11:01:26.661Z,6.91
2019-03-01T11:02:26.621Z,6.88
2019-03-01T11:03:26.747Z,6.89
2019-03-01T11:04:26.628Z,6.85
2019-03-01T11:05:26.607Z,6.77
2019-03-01T11:06:26.620Z,6.71
2019-03-01T11:07:26.638Z,6.74
2019-03-01T11:08:26.573Z,6.70
2019-03-01T11:09:26.544Z,6.77
2019-03-01T11:10:26.549Z,6.80
2019-03-01T11:11:26.516Z,6.73
2019-03-01T11:12:26.531Z,6.76
2019-03-01T11:13:26.562Z,6.73
2019-03-01T11:14:26.520Z,6.70
2019-03-01T11:15:28.111Z,6.80
2019-03-01T11:16:26.521Z,6.76
2019-03-01T11:17:26.496Z,6.74
2019-03-01T11:18:26.485Z,6.74
2019-03-01T11:19:26.457Z,6.76
2019-03-01T11:20:26.461Z,6.74
2019-03-01T11:21:26.431Z,6.73
2019-03-01T11:22:26.445Z,6.58
2019-03-01T11:23:26.427Z,6.69
2019-03-01T11:24:26.409Z,6.67
2019-03-01T11:25:28.080Z,6.61
2019-03-01T11:26:26.419Z,6.59
2019-03-01T11:27:26.384Z,6.46
2019-03-01T11:28:26.417Z,6.30
2019-03-01T11:29:26.411Z,6.22
2019-03-01T11:30:26.386Z,6.22
2019-03-01T11:31:28.085Z,6.33
2019-03-01T11:32:28.142Z,6.34
2019-03-01T11:33:26.331Z,6.33
2019-03-01T11:34:26.315Z,6.27
2019-03-01T11:35:26.291Z,6.21
2019-03-01T11:36:28.104Z,6.28
2019-03-01T11:37:26.265Z,6.21
2019-03-01T11:38:26.242Z,6.28
2019-03-01T11:39:26.315Z,6.31
2019-03-01T11:40:26.219Z,6.28
2019-03-01T11:41:26.267Z,6.22
2019-03-01T11:42:26.213Z,6.37
2019-03-01T11:43:26.225Z,6.41
2019-03-01T11:44:26.189Z,6.41
2019-03-01T11:45:28.086Z,6.43
2019-03-01T11:46:26.189Z,6.48
2019-03-01T11:47:26.192Z,6.46
2019-03-01T11:48:26.217Z,6.51
2019-03-01T11:49:26.157Z,6.52
2019-03-01T11:50:29.084Z,6.55
2019-03-01T11:51:27.784Z,6.70
2019-03-01T11:52:26.207Z,6.62
2019-03-01T11:53:26.111Z,6.58
2019-03-01T11:54:26.127Z,6.58
2019-03-01T11:55:26.216Z,6.67
2019-03-01T11:56:26.053Z,6.61
2019-03-01T11:57:26.057Z,6.64
2019-03-01T11:58:26.023Z,6.66
2019-03-01T11:59:26.028Z,6.66
2019-03-01T12:00:26.093Z,6.62
2019-03-01T12:01:28.589Z,6.66
2019-03-01T12:02:26.043Z,6.66
2019-03-01T12:03:26.040Z,6.70
2019-03-01T12:04:26.047Z,6.61
2019-03-01T12:05:25.964Z,6.69
2019-03-01T12:06:25.958Z,6.67
2019-03-01T12:07:25.974Z,6.62
2019-03-01T12:08:25.929Z,6.59
2019-03-01T12:09:25.952Z,6.64
2019-03-01T12:10:25.927Z,6.62
2019-03-01T12:11:25.901Z,6.54
2019-03-01T12:12:25.869Z,6.44
2019-03-01T12:13:25.917Z,6.43
2019-03-01T12:14:25.865Z,6.37
2019-03-01T12:15:26.008Z,6.44
2019-03-01T12:16:27.591Z,6.40
2019-03-01T12:17:27.633Z,6.48
2019-03-01T12:18:25.874Z,6.52
2019-03-01T12:19:25.787Z,6.49
2019-03-01T12:20:25.848Z,6.43
2019-03-01T12:21:25.799Z,6.48
2019-03-01T12:22:25.793Z,6.33
2019-03-01T12:23:25.823Z,6.33
2019-03-01T12:24:25.777Z,6.43
2019-03-01T12:25:25.788Z,6.40
2019-03-01T12:26:25.741Z,6.44
2019-03-01T12:27:25.753Z,6.41
2019-03-01T12:28:25.767Z,6.27
2019-03-01T12:29:25.694Z,6.15
2019-03-01T12:30:25.723Z,6.15
2019-03-01T12:31:25.729Z,6.03
2019-03-01T12:32:25.759Z,6.21
2019-03-01T12:33:25.661Z,6.18
2019-03-01T12:34:25.697Z,6.09
2019-03-01T12:35:25.683Z,6.15
2019-03-01T12:36:25.623Z,6.15
2019-03-01T12:37:25.626Z,6.25
2019-03-01T12:38:25.629Z,6.21
2019-03-01T12:39:25.595Z,6.25
2019-03-01T12:40:25.607Z,6.21
2019-03-01T12:41:28.105Z,6.19
2019-03-01T12:42:25.561Z,6.17
2019-03-01T12:43:28.113Z,6.15
2019-03-01T12:44:25.563Z,6.17
2019-03-01T12:45:25.602Z,6.12
2019-03-01T12:46:25.549Z,6.22
2019-03-01T12:47:25.565Z,6.25
2019-03-01T12:48:25.525Z,6.34
2019-03-01T12:49:25.547Z,6.30
2019-03-01T12:50:25.492Z,6.40
2019-03-01T12:51:27.163Z,6.31
2019-03-01T12:52:25.519Z,6.33
2019-03-01T12:53:25.520Z,6.38
2019-03-01T12:54:25.467Z,6.40
2019-03-01T12:55:28.095Z,6.46
2019-03-01T12:56:27.099Z,6.37
2019-03-01T12:57:25.419Z,6.37
2019-03-01T12:58:25.426Z,6.37
2019-03-01T12:59:27.171Z,6.48
2019-03-01T13:00:25.399Z,6.41
2019-03-01T13:01:25.414Z,6.48
2019-03-01T13:02:25.359Z,6.44
2019-03-01T13:03:25.377Z,6.41
2019-03-01T13:04:27.280Z,6.44
2019-03-01T13:05:25.511Z,6.40
2019-03-01T13:06:25.384Z,6.37
2019-03-01T13:07:25.319Z,6.41
2019-03-01T13:08:25.357Z,6.37
2019-03-01T13:09:28.129Z,6.33
2019-03-01T13:10:25.268Z,6.27
2019-03-01T13:11:25.279Z,6.27
2019-03-01T13:12:26.127Z,6.33
2019-03-01T13:13:27.123Z,6.19
2019-03-01T13:14:25.258Z,6.27
2019-03-01T13:15:29.124Z,6.28
2019-03-01T13:16:26.648Z,6.27
2019-03-01T13:17:26.191Z,6.22
2019-03-01T13:18:25.270Z,6.15
2019-03-01T13:19:26.151Z,6.09
2019-03-01T13:20:25.234Z,6.15
2019-03-01T13:21:27.137Z,6.14
2019-03-01T13:22:27.985Z,6.12
2019-03-01T13:23:25.163Z,6.17
2019-03-01T13:24:25.201Z,6.15
2019-03-01T13:25:25.776Z,6.14
2019-03-01T13:26:25.237Z,6.15
2019-03-01T13:27:25.140Z,6.17
2019-03-01T13:28:25.118Z,6.15
2019-03-01T13:29:25.169Z,6.09
2019-03-01T13:30:25.395Z,6.08